BEL8RD EBBR-LIMC
Flight info
| Callsign | BEL8RD |
|---|---|
| Flight time | 1h 53m |
| Altitude | 37000 |
| Route | ROUSY DCT GTQ/N0437F310 DCT DEVDI DCT BASGO/N0420F290 Z424 AKASU/N0359F190 Z424 RIXUV |
| Aircraft | A20N/M-SDE2E3FGHIRWXY/LB1 |
Departure
| Time | 2026-05-05 20:10 |
|---|---|
| Airport | Brussels Airport (EBBR) |
Arrival
| Time | 2026-05-05 22:03 |
|---|---|
| Airport | Milan Malpensa International Airport (LIMC) |
| Time | Latitude | Longitude | Altitude | Speed | Heading |
|---|---|---|---|---|---|
| 2026-05-05 19:39 | 50.90365 | 4.48882 | 132 ft | 0 kts | 336° |
| 2026-05-05 19:59 | 50.90358 | 4.48887 | 133 ft | 3 kts | 336° |
| 2026-05-05 19:59 | 50.90334 | 4.48903 | 134 ft | 3 kts | 336° |
| 2026-05-05 19:59 | 50.90310 | 4.48920 | 135 ft | 3 kts | 335° |
| 2026-05-05 20:00 | 50.90286 | 4.48937 | 136 ft | 3 kts | 335° |
| 2026-05-05 20:00 | 50.90262 | 4.48949 | 137 ft | 3 kts | 354° |
| 2026-05-05 20:00 | 50.90255 | 4.48945 | 137 ft | 0 kts | 39° |
| 2026-05-05 20:00 | 50.90256 | 4.48944 | 137 ft | 0 kts | 84° |
| 2026-05-05 20:01 | 50.90253 | 4.48973 | 137 ft | 3 kts | 43° |
| 2026-05-05 20:01 | 50.90272 | 4.48989 | 137 ft | 2 kts | 18° |
| 2026-05-05 20:01 | 50.90289 | 4.48997 | 136 ft | 2 kts | 15° |
| 2026-05-05 20:01 | 50.90304 | 4.49003 | 136 ft | 1 kts | 17° |
| 2026-05-05 20:02 | 50.90316 | 4.49004 | 136 ft | 1 kts | 27° |
| 2026-05-05 20:02 | 50.90326 | 4.49008 | 136 ft | 1 kts | 27° |
| 2026-05-05 20:02 | 50.90334 | 4.49011 | 135 ft | 1 kts | 26° |
| 2026-05-05 20:02 | 50.90339 | 4.49014 | 135 ft | 0 kts | 23° |
| 2026-05-05 20:05 | 50.90340 | 4.49015 | 135 ft | 1 kts | 24° |
| 2026-05-05 20:05 | 50.90342 | 4.49027 | 135 ft | 2 kts | 92° |
| 2026-05-05 20:05 | 50.90341 | 4.49051 | 136 ft | 5 kts | 91° |
| 2026-05-05 20:05 | 50.90351 | 4.49143 | 135 ft | 12 kts | 69° |
| 2026-05-05 20:06 | 50.90395 | 4.49293 | 134 ft | 16 kts | 65° |
| 2026-05-05 20:06 | 50.90396 | 4.49441 | 134 ft | 14 kts | 154° |
| 2026-05-05 20:06 | 50.90301 | 4.49415 | 136 ft | 13 kts | 194° |
| 2026-05-05 20:06 | 50.90209 | 4.49377 | 140 ft | 13 kts | 194° |
| 2026-05-05 20:07 | 50.90123 | 4.49341 | 143 ft | 12 kts | 194° |
| 2026-05-05 20:07 | 50.90004 | 4.49291 | 147 ft | 24 kts | 195° |
| 2026-05-05 20:07 | 50.89846 | 4.49229 | 151 ft | 22 kts | 194° |
| 2026-05-05 20:07 | 50.89704 | 4.49173 | 154 ft | 19 kts | 194° |
| 2026-05-05 20:08 | 50.89581 | 4.49080 | 156 ft | 19 kts | 205° |
| 2026-05-05 20:08 | 50.89451 | 4.49022 | 159 ft | 17 kts | 194° |
| 2026-05-05 20:08 | 50.89350 | 4.49059 | 160 ft | 15 kts | 153° |
| 2026-05-05 20:08 | 50.89250 | 4.49061 | 161 ft | 14 kts | 194° |
| 2026-05-05 20:09 | 50.89163 | 4.49047 | 163 ft | 10 kts | 161° |
| 2026-05-05 20:09 | 50.89156 | 4.49133 | 163 ft | 14 kts | 69° |
| 2026-05-05 20:09 | 50.89269 | 4.49620 | 161 ft | 84 kts | 70° |
| 2026-05-05 20:09 | 50.89543 | 4.50814 | 158 ft | 146 kts | 70° |
| 2026-05-05 20:10 | 50.89922 | 4.52476 | 553 ft | 164 kts | 69° |
| 2026-05-05 20:10 | 50.90306 | 4.54138 | 1294 ft | 163 kts | 63° |
| 2026-05-05 20:10 | 50.90791 | 4.55660 | 2152 ft | 156 kts | 59° |
| 2026-05-05 20:10 | 50.91301 | 4.57121 | 2877 ft | 153 kts | 58° |
| 2026-05-05 20:11 | 50.91816 | 4.58589 | 3511 ft | 155 kts | 59° |
| 2026-05-05 20:11 | 50.92353 | 4.60161 | 3929 ft | 172 kts | 60° |
| 2026-05-05 20:11 | 50.92938 | 4.61885 | 4349 ft | 188 kts | 60° |
| 2026-05-05 20:11 | 50.93556 | 4.63880 | 4698 ft | 213 kts | 65° |
| 2026-05-05 20:12 | 50.94082 | 4.66164 | 5196 ft | 232 kts | 70° |
| 2026-05-05 20:12 | 50.94570 | 4.68700 | 5717 ft | 250 kts | 75° |
| 2026-05-05 20:12 | 50.94540 | 4.71494 | 6363 ft | 267 kts | 108° |
| 2026-05-05 20:12 | 50.93554 | 4.73962 | 7229 ft | 275 kts | 134° |
| 2026-05-05 20:13 | 50.92032 | 4.75515 | 8044 ft | 282 kts | 155° |
| 2026-05-05 20:13 | 50.90190 | 4.76665 | 8919 ft | 286 kts | 156° |
| 2026-05-05 20:13 | 50.88343 | 4.77801 | 9739 ft | 290 kts | 157° |
| 2026-05-05 20:13 | 50.86470 | 4.78953 | 10481 ft | 297 kts | 157° |
| 2026-05-05 20:14 | 50.84490 | 4.80176 | 10929 ft | 314 kts | 157° |
| 2026-05-05 20:14 | 50.82395 | 4.81473 | 11342 ft | 332 kts | 157° |
| 2026-05-05 20:14 | 50.80237 | 4.82807 | 11972 ft | 340 kts | 157° |
| 2026-05-05 20:14 | 50.78030 | 4.84167 | 12769 ft | 343 kts | 158° |
| 2026-05-05 20:15 | 50.75815 | 4.85532 | 13555 ft | 346 kts | 158° |
| 2026-05-05 20:15 | 50.73577 | 4.86911 | 14296 ft | 349 kts | 158° |
| 2026-05-05 20:15 | 50.71319 | 4.88303 | 15044 ft | 351 kts | 158° |
| 2026-05-05 20:15 | 50.69056 | 4.89700 | 15776 ft | 354 kts | 157° |
| 2026-05-05 20:16 | 50.66860 | 4.91406 | 16481 ft | 356 kts | 149° |
| 2026-05-05 20:16 | 50.64837 | 4.93673 | 17169 ft | 359 kts | 141° |
| 2026-05-05 20:16 | 50.63020 | 4.96341 | 17817 ft | 363 kts | 136° |
| 2026-05-05 20:16 | 50.61231 | 4.99117 | 18467 ft | 365 kts | 136° |
| 2026-05-05 20:17 | 50.59418 | 5.01945 | 19088 ft | 369 kts | 136° |
| 2026-05-05 20:17 | 50.57587 | 5.04794 | 19729 ft | 371 kts | 137° |
| 2026-05-05 20:17 | 50.55769 | 5.07614 | 20351 ft | 374 kts | 136° |
| 2026-05-05 20:17 | 50.53911 | 5.10489 | 20944 ft | 377 kts | 136° |
| 2026-05-05 20:18 | 50.52040 | 5.13376 | 21533 ft | 380 kts | 135° |
| 2026-05-05 20:18 | 50.50139 | 5.16311 | 22107 ft | 383 kts | 136° |
| 2026-05-05 20:18 | 50.48235 | 5.19245 | 22658 ft | 386 kts | 135° |
| 2026-05-05 20:18 | 50.46328 | 5.22175 | 23191 ft | 389 kts | 136° |
| 2026-05-05 20:19 | 50.44383 | 5.25161 | 23740 ft | 391 kts | 134° |
| 2026-05-05 20:19 | 50.42453 | 5.28122 | 24287 ft | 393 kts | 135° |
| 2026-05-05 20:19 | 50.40508 | 5.31101 | 24775 ft | 395 kts | 135° |
| 2026-05-05 20:19 | 50.38538 | 5.34117 | 25283 ft | 398 kts | 135° |
| 2026-05-05 20:20 | 50.36570 | 5.37130 | 25765 ft | 400 kts | 135° |
| 2026-05-05 20:20 | 50.34568 | 5.40189 | 26243 ft | 402 kts | 135° |
| 2026-05-05 20:20 | 50.32584 | 5.43214 | 26683 ft | 404 kts | 135° |
| 2026-05-05 20:20 | 50.30559 | 5.46296 | 27124 ft | 406 kts | 135° |
| 2026-05-05 20:21 | 50.28533 | 5.49375 | 27558 ft | 408 kts | 135° |
| 2026-05-05 20:21 | 50.26516 | 5.52435 | 27982 ft | 410 kts | 135° |
| 2026-05-05 20:21 | 50.24455 | 5.55561 | 28401 ft | 412 kts | 135° |
| 2026-05-05 20:21 | 50.22403 | 5.58670 | 28826 ft | 413 kts | 135° |
| 2026-05-05 20:22 | 50.20340 | 5.61792 | 29368 ft | 412 kts | 135° |
| 2026-05-05 20:22 | 50.18314 | 5.64851 | 29938 ft | 409 kts | 135° |
| 2026-05-05 20:22 | 50.16293 | 5.67899 | 30514 ft | 406 kts | 135° |
| 2026-05-05 20:22 | 50.14266 | 5.70954 | 31032 ft | 404 kts | 135° |
| 2026-05-05 20:23 | 50.12199 | 5.73883 | 31480 ft | 403 kts | 139° |
| 2026-05-05 20:23 | 50.10007 | 5.76562 | 31911 ft | 402 kts | 143° |
| 2026-05-05 20:23 | 50.07690 | 5.78991 | 32326 ft | 401 kts | 147° |
| 2026-05-05 20:23 | 50.05284 | 5.81134 | 32739 ft | 400 kts | 151° |
| 2026-05-05 20:24 | 50.02779 | 5.83006 | 33119 ft | 400 kts | 155° |
| 2026-05-05 20:24 | 50.00208 | 5.84583 | 33482 ft | 399 kts | 159° |
| 2026-05-05 20:24 | 49.97587 | 5.85953 | 33830 ft | 398 kts | 160° |
| 2026-05-05 20:24 | 49.94965 | 5.87312 | 34156 ft | 397 kts | 160° |
| 2026-05-05 20:25 | 49.92353 | 5.88664 | 34463 ft | 396 kts | 160° |
| 2026-05-05 20:25 | 49.89725 | 5.90021 | 34729 ft | 396 kts | 160° |
| 2026-05-05 20:25 | 49.87147 | 5.91350 | 34982 ft | 395 kts | 160° |
| 2026-05-05 20:25 | 49.84533 | 5.92697 | 35151 ft | 396 kts | 160° |
| 2026-05-05 20:26 | 49.81945 | 5.94030 | 35290 ft | 398 kts | 160° |
| 2026-05-05 20:26 | 49.79313 | 5.95382 | 35432 ft | 400 kts | 160° |
| 2026-05-05 20:26 | 49.76653 | 5.96746 | 35603 ft | 402 kts | 161° |
| 2026-05-05 20:26 | 49.74026 | 5.98092 | 35750 ft | 402 kts | 161° |
| 2026-05-05 20:27 | 49.71365 | 5.99453 | 35922 ft | 403 kts | 161° |
| 2026-05-05 20:27 | 49.68687 | 6.00822 | 36064 ft | 404 kts | 161° |
| 2026-05-05 20:27 | 49.66053 | 6.02166 | 36211 ft | 405 kts | 161° |
| 2026-05-05 20:27 | 49.63366 | 6.03536 | 36334 ft | 406 kts | 161° |
| 2026-05-05 20:28 | 49.60697 | 6.04895 | 36458 ft | 407 kts | 161° |
| 2026-05-05 20:28 | 49.58015 | 6.06260 | 36579 ft | 408 kts | 162° |
| 2026-05-05 20:28 | 49.55325 | 6.07644 | 36714 ft | 410 kts | 160° |
| 2026-05-05 20:29 | 49.50040 | 6.11036 | 36807 ft | 414 kts | 154° |
| 2026-05-05 20:29 | 49.44987 | 6.15387 | 36813 ft | 423 kts | 148° |
| 2026-05-05 20:30 | 49.40209 | 6.20717 | 36816 ft | 427 kts | 142° |
| 2026-05-05 20:30 | 49.35592 | 6.26432 | 36818 ft | 428 kts | 142° |
| 2026-05-05 20:31 | 49.30957 | 6.32151 | 36818 ft | 428 kts | 142° |
| 2026-05-05 20:31 | 49.26313 | 6.37868 | 36812 ft | 429 kts | 142° |
| 2026-05-05 20:32 | 49.21671 | 6.43568 | 36838 ft | 429 kts | 142° |
| 2026-05-05 20:32 | 49.17051 | 6.49227 | 36829 ft | 428 kts | 142° |
| 2026-05-05 20:33 | 49.12407 | 6.54903 | 36822 ft | 428 kts | 142° |
| 2026-05-05 20:33 | 49.07763 | 6.60563 | 36810 ft | 428 kts | 142° |
| 2026-05-05 20:34 | 49.03135 | 6.66163 | 36824 ft | 428 kts | 144° |
| 2026-05-05 20:34 | 48.98212 | 6.71264 | 36823 ft | 428 kts | 150° |
| 2026-05-05 20:35 | 48.92986 | 6.75484 | 36814 ft | 427 kts | 157° |
| 2026-05-05 20:35 | 48.87572 | 6.79173 | 36829 ft | 428 kts | 157° |
| 2026-05-05 20:36 | 48.82118 | 6.82892 | 36833 ft | 428 kts | 157° |
| 2026-05-05 20:36 | 48.76726 | 6.86556 | 36831 ft | 428 kts | 157° |
| 2026-05-05 20:37 | 48.71312 | 6.90226 | 36828 ft | 427 kts | 158° |
| 2026-05-05 20:37 | 48.65899 | 6.93887 | 36835 ft | 428 kts | 158° |
| 2026-05-05 20:38 | 48.60483 | 6.97539 | 36847 ft | 428 kts | 158° |
| 2026-05-05 20:38 | 48.55046 | 7.01197 | 36856 ft | 428 kts | 158° |
| 2026-05-05 20:39 | 48.49630 | 7.04831 | 36861 ft | 428 kts | 158° |
| 2026-05-05 20:39 | 48.44196 | 7.08469 | 36863 ft | 428 kts | 158° |
| 2026-05-05 20:40 | 48.38772 | 7.12092 | 36859 ft | 428 kts | 158° |
| 2026-05-05 20:40 | 48.33338 | 7.15713 | 36866 ft | 429 kts | 158° |
| 2026-05-05 20:41 | 48.27901 | 7.19330 | 36864 ft | 428 kts | 158° |
| 2026-05-05 20:41 | 48.22478 | 7.22928 | 36873 ft | 428 kts | 158° |
| 2026-05-05 20:42 | 48.17045 | 7.26524 | 36867 ft | 428 kts | 158° |
| 2026-05-05 20:42 | 48.11577 | 7.30135 | 36877 ft | 428 kts | 158° |
| 2026-05-05 20:43 | 48.06147 | 7.33710 | 36866 ft | 429 kts | 158° |
| 2026-05-05 20:43 | 48.00726 | 7.37273 | 36878 ft | 429 kts | 159° |
| 2026-05-05 20:44 | 47.95261 | 7.40856 | 36885 ft | 429 kts | 159° |
| 2026-05-05 20:44 | 47.89818 | 7.44418 | 36886 ft | 429 kts | 159° |
| 2026-05-05 20:45 | 47.81636 | 7.49756 | 36888 ft | 429 kts | 159° |
| 2026-05-05 20:45 | 47.76143 | 7.53326 | 36891 ft | 429 kts | 159° |
| 2026-05-05 20:46 | 47.70725 | 7.56846 | 36894 ft | 428 kts | 159° |
| 2026-05-05 20:46 | 47.65277 | 7.60378 | 36892 ft | 428 kts | 159° |
| 2026-05-05 20:47 | 47.59828 | 7.63901 | 36893 ft | 428 kts | 159° |
| 2026-05-05 20:47 | 47.54400 | 7.67406 | 36896 ft | 427 kts | 160° |
| 2026-05-05 20:48 | 47.48979 | 7.70899 | 36899 ft | 427 kts | 160° |
| 2026-05-05 20:48 | 47.43547 | 7.74389 | 36897 ft | 427 kts | 160° |
| 2026-05-05 20:49 | 47.40810 | 7.76146 | 36733 ft | 428 kts | 160° |
| 2026-05-05 20:49 | 47.38093 | 7.77885 | 36831 ft | 429 kts | 160° |
| 2026-05-05 20:49 | 47.32639 | 7.81371 | 36883 ft | 429 kts | 160° |
| 2026-05-05 20:50 | 47.27157 | 7.84870 | 36905 ft | 429 kts | 161° |
| 2026-05-05 20:50 | 47.21718 | 7.88332 | 36907 ft | 429 kts | 161° |
| 2026-05-05 20:51 | 47.16248 | 7.91807 | 36864 ft | 430 kts | 161° |
| 2026-05-05 20:51 | 47.13536 | 7.93528 | 36622 ft | 428 kts | 161° |
| 2026-05-05 20:51 | 47.10814 | 7.95256 | 36374 ft | 424 kts | 161° |
| 2026-05-05 20:52 | 47.08114 | 7.96966 | 36131 ft | 422 kts | 161° |
| 2026-05-05 20:52 | 47.05448 | 7.98652 | 35912 ft | 419 kts | 161° |
| 2026-05-05 20:52 | 47.02781 | 8.00338 | 35715 ft | 417 kts | 162° |
| 2026-05-05 20:52 | 47.00138 | 8.02003 | 35533 ft | 416 kts | 162° |
| 2026-05-05 20:53 | 46.97488 | 8.03672 | 35342 ft | 416 kts | 162° |
| 2026-05-05 20:53 | 46.94819 | 8.05351 | 35156 ft | 415 kts | 162° |
| 2026-05-05 20:53 | 46.92175 | 8.07012 | 34975 ft | 415 kts | 162° |
| 2026-05-05 20:53 | 46.89524 | 8.08678 | 34780 ft | 414 kts | 163° |
| 2026-05-05 20:54 | 46.86891 | 8.10331 | 34585 ft | 413 kts | 163° |
| 2026-05-05 20:54 | 46.84248 | 8.11989 | 34357 ft | 412 kts | 163° |
| 2026-05-05 20:54 | 46.81633 | 8.13625 | 33998 ft | 412 kts | 163° |
| 2026-05-05 20:54 | 46.79022 | 8.15252 | 33516 ft | 412 kts | 163° |
| 2026-05-05 20:55 | 46.76399 | 8.16887 | 32949 ft | 413 kts | 163° |
| 2026-05-05 20:55 | 46.73744 | 8.18538 | 32317 ft | 415 kts | 162° |
| 2026-05-05 20:55 | 46.71096 | 8.20180 | 31667 ft | 417 kts | 162° |
| 2026-05-05 20:55 | 46.68430 | 8.21839 | 30974 ft | 419 kts | 162° |
| 2026-05-05 20:56 | 46.65768 | 8.23494 | 30239 ft | 422 kts | 162° |
| 2026-05-05 20:56 | 46.63067 | 8.25176 | 29559 ft | 421 kts | 162° |
| 2026-05-05 20:56 | 46.60402 | 8.26835 | 29089 ft | 415 kts | 162° |
| 2026-05-05 20:56 | 46.57772 | 8.28467 | 28601 ft | 411 kts | 162° |
| 2026-05-05 20:57 | 46.55153 | 8.30091 | 28109 ft | 406 kts | 162° |
| 2026-05-05 20:57 | 46.52591 | 8.31677 | 27627 ft | 402 kts | 162° |
| 2026-05-05 20:57 | 46.50019 | 8.33269 | 27148 ft | 399 kts | 162° |
| 2026-05-05 20:57 | 46.47520 | 8.34809 | 26670 ft | 395 kts | 162° |
| 2026-05-05 20:58 | 46.44987 | 8.36373 | 26187 ft | 392 kts | 162° |
| 2026-05-05 20:58 | 46.42510 | 8.37897 | 25709 ft | 388 kts | 161° |
| 2026-05-05 20:58 | 46.40060 | 8.39555 | 25389 ft | 396 kts | 152° |
| 2026-05-05 20:58 | 46.38037 | 8.42314 | 25220 ft | 411 kts | 130° |
| 2026-05-05 20:59 | 46.36489 | 8.45808 | 25097 ft | 414 kts | 127° |
| 2026-05-05 20:59 | 46.34969 | 8.49324 | 24967 ft | 413 kts | 127° |
| 2026-05-05 20:59 | 46.33436 | 8.52800 | 24930 ft | 412 kts | 128° |
| 2026-05-05 20:59 | 46.31857 | 8.56309 | 24833 ft | 411 kts | 128° |
| 2026-05-05 21:00 | 46.30298 | 8.59727 | 24699 ft | 409 kts | 128° |
| 2026-05-05 21:00 | 46.28730 | 8.63139 | 24565 ft | 409 kts | 129° |
| 2026-05-05 21:00 | 46.27158 | 8.66537 | 24435 ft | 407 kts | 130° |
| 2026-05-05 21:00 | 46.25597 | 8.69903 | 24299 ft | 405 kts | 130° |
| 2026-05-05 21:01 | 46.24034 | 8.73268 | 24169 ft | 404 kts | 130° |
| 2026-05-05 21:01 | 46.22456 | 8.76650 | 24039 ft | 403 kts | 129° |
| 2026-05-05 21:01 | 46.20900 | 8.79981 | 23907 ft | 402 kts | 129° |
| 2026-05-05 21:01 | 46.19341 | 8.83316 | 23782 ft | 401 kts | 129° |
| 2026-05-05 21:02 | 46.17783 | 8.86645 | 23650 ft | 400 kts | 130° |
| 2026-05-05 21:02 | 46.16233 | 8.89953 | 23517 ft | 400 kts | 130° |
| 2026-05-05 21:02 | 46.14668 | 8.93289 | 23385 ft | 399 kts | 130° |
| 2026-05-05 21:02 | 46.13117 | 8.96597 | 23248 ft | 398 kts | 130° |
| 2026-05-05 21:03 | 46.11585 | 8.99855 | 23117 ft | 398 kts | 130° |
| 2026-05-05 21:03 | 46.10026 | 9.03168 | 22978 ft | 397 kts | 130° |
| 2026-05-05 21:03 | 46.08480 | 9.06451 | 22832 ft | 397 kts | 130° |
| 2026-05-05 21:03 | 46.06949 | 9.09690 | 22692 ft | 396 kts | 130° |
| 2026-05-05 21:04 | 46.05400 | 9.12968 | 22551 ft | 397 kts | 130° |
| 2026-05-05 21:04 | 46.03838 | 9.16267 | 22401 ft | 394 kts | 130° |
| 2026-05-05 21:04 | 46.02342 | 9.19439 | 22263 ft | 381 kts | 130° |
| 2026-05-05 21:04 | 46.00869 | 9.22556 | 22109 ft | 368 kts | 130° |
| 2026-05-05 21:05 | 45.99462 | 9.25529 | 21840 ft | 360 kts | 130° |
| 2026-05-05 21:05 | 45.98074 | 9.28450 | 21584 ft | 352 kts | 130° |
| 2026-05-05 21:05 | 45.96697 | 9.31340 | 21318 ft | 345 kts | 130° |
| 2026-05-05 21:05 | 45.95349 | 9.34165 | 21076 ft | 343 kts | 131° |
| 2026-05-05 21:06 | 45.94014 | 9.36960 | 21010 ft | 343 kts | 130° |
| 2026-05-05 21:06 | 45.92681 | 9.39781 | 21006 ft | 343 kts | 130° |
| 2026-05-05 21:06 | 45.91359 | 9.42637 | 21009 ft | 345 kts | 130° |
| 2026-05-05 21:06 | 45.90038 | 9.45470 | 21001 ft | 337 kts | 130° |
| 2026-05-05 21:07 | 45.88760 | 9.48193 | 20997 ft | 322 kts | 130° |
| 2026-05-05 21:07 | 45.87528 | 9.50792 | 20989 ft | 307 kts | 131° |
| 2026-05-05 21:07 | 45.86357 | 9.53257 | 20980 ft | 293 kts | 131° |
| 2026-05-05 21:07 | 45.85196 | 9.55670 | 20992 ft | 292 kts | 133° |
| 2026-05-05 21:08 | 45.84010 | 9.57992 | 21001 ft | 292 kts | 134° |
| 2026-05-05 21:08 | 45.82791 | 9.60307 | 20997 ft | 292 kts | 134° |
| 2026-05-05 21:08 | 45.81560 | 9.62648 | 20998 ft | 293 kts | 134° |
| 2026-05-05 21:08 | 45.80340 | 9.64975 | 21002 ft | 292 kts | 134° |
| 2026-05-05 21:09 | 45.78989 | 9.67072 | 20989 ft | 279 kts | 154° |
| 2026-05-05 21:09 | 45.77267 | 9.68058 | 20989 ft | 265 kts | 179° |
| 2026-05-05 21:09 | 45.75463 | 9.67907 | 20990 ft | 256 kts | 201° |
| 2026-05-05 21:09 | 45.73902 | 9.66775 | 20989 ft | 254 kts | 220° |
| 2026-05-05 21:10 | 45.72768 | 9.64869 | 20985 ft | 255 kts | 240° |
| 2026-05-05 21:10 | 45.72237 | 9.62422 | 20988 ft | 264 kts | 261° |
| 2026-05-05 21:10 | 45.72443 | 9.59792 | 20985 ft | 276 kts | 283° |
| 2026-05-05 21:10 | 45.73453 | 9.57392 | 20979 ft | 291 kts | 309° |
| 2026-05-05 21:11 | 45.75198 | 9.55782 | 20971 ft | 308 kts | 337° |
| 2026-05-05 21:11 | 45.77354 | 9.55487 | 20974 ft | 322 kts | 8° |
| 2026-05-05 21:11 | 45.79485 | 9.56562 | 20910 ft | 327 kts | 23° |
| 2026-05-05 21:11 | 45.81605 | 9.57611 | 20754 ft | 320 kts | 1° |
| 2026-05-05 21:12 | 45.83738 | 9.57261 | 20615 ft | 303 kts | 329° |
| 2026-05-05 21:12 | 45.85352 | 9.55522 | 20492 ft | 282 kts | 298° |
| 2026-05-05 21:12 | 45.86126 | 9.53067 | 20373 ft | 266 kts | 273° |
| 2026-05-05 21:12 | 45.86107 | 9.50502 | 20252 ft | 256 kts | 252° |
| 2026-05-05 21:13 | 45.85400 | 9.48215 | 20121 ft | 250 kts | 232° |
| 2026-05-05 21:13 | 45.84156 | 9.46520 | 19999 ft | 249 kts | 212° |
| 2026-05-05 21:13 | 45.82532 | 9.45623 | 19944 ft | 255 kts | 192° |
| 2026-05-05 21:13 | 45.80765 | 9.45711 | 19941 ft | 263 kts | 170° |
| 2026-05-05 21:14 | 45.79077 | 9.46875 | 19904 ft | 276 kts | 148° |
| 2026-05-05 21:14 | 45.77758 | 9.48916 | 19968 ft | 285 kts | 135° |
| 2026-05-05 21:14 | 45.76558 | 9.51195 | 19986 ft | 285 kts | 134° |
| 2026-05-05 21:14 | 45.75396 | 9.53443 | 19983 ft | 285 kts | 134° |
| 2026-05-05 21:15 | 45.74205 | 9.55737 | 19991 ft | 286 kts | 134° |
| 2026-05-05 21:15 | 45.73020 | 9.58015 | 19996 ft | 286 kts | 134° |
| 2026-05-05 21:15 | 45.71838 | 9.60276 | 19988 ft | 286 kts | 134° |
| 2026-05-05 21:15 | 45.70672 | 9.62590 | 19983 ft | 290 kts | 127° |
| 2026-05-05 21:16 | 45.70063 | 9.65389 | 19972 ft | 307 kts | 96° |
| 2026-05-05 21:16 | 45.70466 | 9.68406 | 19979 ft | 319 kts | 65° |
| 2026-05-05 21:16 | 45.71846 | 9.70871 | 19984 ft | 322 kts | 34° |
| 2026-05-05 21:16 | 45.73878 | 9.72103 | 19988 ft | 315 kts | 2° |
| 2026-05-05 21:17 | 45.75984 | 9.71844 | 19993 ft | 300 kts | 332° |
| 2026-05-05 21:17 | 45.77695 | 9.70330 | 19993 ft | 284 kts | 306° |
| 2026-05-05 21:17 | 45.78879 | 9.68124 | 20003 ft | 278 kts | 297° |
| 2026-05-05 21:17 | 45.79984 | 9.65833 | 19992 ft | 278 kts | 298° |
| 2026-05-05 21:18 | 45.81091 | 9.63590 | 19987 ft | 279 kts | 299° |
| 2026-05-05 21:18 | 45.82227 | 9.61346 | 19993 ft | 280 kts | 299° |
| 2026-05-05 21:18 | 45.83384 | 9.59090 | 20002 ft | 280 kts | 300° |
| 2026-05-05 21:18 | 45.84554 | 9.56824 | 19997 ft | 281 kts | 300° |
| 2026-05-05 21:19 | 45.85695 | 9.54564 | 20004 ft | 278 kts | 293° |
| 2026-05-05 21:19 | 45.86261 | 9.52047 | 19995 ft | 261 kts | 265° |
| 2026-05-05 21:19 | 45.85963 | 9.49570 | 20006 ft | 253 kts | 244° |
| 2026-05-05 21:19 | 45.85021 | 9.47472 | 20003 ft | 250 kts | 224° |
| 2026-05-05 21:20 | 45.83602 | 9.46055 | 20006 ft | 251 kts | 205° |
| 2026-05-05 21:20 | 45.81889 | 9.45514 | 20000 ft | 256 kts | 184° |
| 2026-05-05 21:20 | 45.80124 | 9.45984 | 20003 ft | 267 kts | 162° |
| 2026-05-05 21:20 | 45.78553 | 9.47535 | 19994 ft | 281 kts | 139° |
| 2026-05-05 21:21 | 45.77338 | 9.49738 | 20004 ft | 286 kts | 134° |
| 2026-05-05 21:21 | 45.76147 | 9.52021 | 20006 ft | 285 kts | 134° |
| 2026-05-05 21:21 | 45.74966 | 9.54289 | 19993 ft | 285 kts | 134° |
| 2026-05-05 21:21 | 45.73786 | 9.56550 | 19999 ft | 286 kts | 134° |
| 2026-05-05 21:22 | 45.72592 | 9.58837 | 20000 ft | 286 kts | 134° |
| 2026-05-05 21:22 | 45.71414 | 9.61094 | 19995 ft | 286 kts | 134° |
| 2026-05-05 21:22 | 45.70349 | 9.63515 | 19976 ft | 296 kts | 116° |
| 2026-05-05 21:22 | 45.70094 | 9.66500 | 19981 ft | 311 kts | 85° |
| 2026-05-05 21:23 | 45.70855 | 9.69371 | 19987 ft | 320 kts | 54° |
| 2026-05-05 21:23 | 45.72523 | 9.71469 | 19990 ft | 320 kts | 22° |
| 2026-05-05 21:23 | 45.74645 | 9.72172 | 19990 ft | 311 kts | 351° |
| 2026-05-05 21:23 | 45.76665 | 9.71423 | 19994 ft | 296 kts | 322° |
| 2026-05-05 21:24 | 45.78164 | 9.69569 | 20001 ft | 280 kts | 300° |
| 2026-05-05 21:24 | 45.79272 | 9.67315 | 20007 ft | 279 kts | 297° |
| 2026-05-05 21:24 | 45.80347 | 9.64995 | 19992 ft | 280 kts | 290° |
| 2026-05-05 21:24 | 45.80782 | 9.62330 | 19988 ft | 281 kts | 259° |
| 2026-05-05 21:25 | 45.80203 | 9.59652 | 20034 ft | 287 kts | 243° |
| 2026-05-05 21:25 | 45.79410 | 9.57019 | 20010 ft | 289 kts | 246° |
| 2026-05-05 21:25 | 45.78679 | 9.54324 | 19985 ft | 288 kts | 246° |
| 2026-05-05 21:25 | 45.77990 | 9.51682 | 19732 ft | 285 kts | 247° |
| 2026-05-05 21:26 | 45.77309 | 9.49041 | 19275 ft | 285 kts | 247° |
| 2026-05-05 21:26 | 45.76625 | 9.46358 | 18852 ft | 285 kts | 247° |
| 2026-05-05 21:26 | 45.75958 | 9.43726 | 18424 ft | 284 kts | 248° |
| 2026-05-05 21:26 | 45.75290 | 9.41077 | 18014 ft | 283 kts | 248° |
| 2026-05-05 21:27 | 45.74620 | 9.38414 | 17597 ft | 282 kts | 248° |
| 2026-05-05 21:27 | 45.73965 | 9.35812 | 17199 ft | 282 kts | 248° |
| 2026-05-05 21:27 | 45.73296 | 9.33149 | 16621 ft | 287 kts | 247° |
| 2026-05-05 21:27 | 45.72621 | 9.30459 | 16098 ft | 291 kts | 248° |
| 2026-05-05 21:28 | 45.71938 | 9.27728 | 15677 ft | 290 kts | 248° |
| 2026-05-05 21:28 | 45.71264 | 9.25044 | 15271 ft | 289 kts | 248° |
| 2026-05-05 21:28 | 45.70586 | 9.22343 | 14859 ft | 287 kts | 248° |
| 2026-05-05 21:28 | 45.69918 | 9.19688 | 14467 ft | 286 kts | 248° |
| 2026-05-05 21:29 | 45.69246 | 9.17026 | 14049 ft | 286 kts | 248° |
| 2026-05-05 21:29 | 45.68571 | 9.14353 | 13641 ft | 285 kts | 248° |
| 2026-05-05 21:29 | 45.67898 | 9.11690 | 13252 ft | 283 kts | 248° |
| 2026-05-05 21:29 | 45.67234 | 9.09069 | 12852 ft | 283 kts | 248° |
| 2026-05-05 21:30 | 45.66572 | 9.06453 | 12441 ft | 282 kts | 248° |
| 2026-05-05 21:30 | 45.65898 | 9.03798 | 12071 ft | 280 kts | 248° |
| 2026-05-05 21:30 | 45.65247 | 9.01239 | 11828 ft | 274 kts | 248° |
| 2026-05-05 21:30 | 45.64607 | 8.98728 | 11572 ft | 268 kts | 248° |
| 2026-05-05 21:31 | 45.63970 | 8.96226 | 11332 ft | 262 kts | 248° |
| 2026-05-05 21:31 | 45.63354 | 8.93814 | 11083 ft | 257 kts | 248° |
| 2026-05-05 21:31 | 45.62750 | 8.91450 | 10834 ft | 253 kts | 248° |
| 2026-05-05 21:31 | 45.62152 | 8.89113 | 10583 ft | 248 kts | 248° |
| 2026-05-05 21:32 | 45.61541 | 8.86864 | 10329 ft | 242 kts | 239° |
| 2026-05-05 21:32 | 45.60406 | 8.85183 | 10058 ft | 234 kts | 206° |
| 2026-05-05 21:32 | 45.58855 | 8.84642 | 9807 ft | 229 kts | 178° |
| 2026-05-05 21:32 | 45.57333 | 8.85203 | 9561 ft | 230 kts | 152° |
| 2026-05-05 21:33 | 45.56152 | 8.86751 | 9313 ft | 236 kts | 124° |
| 2026-05-05 21:33 | 45.55634 | 8.88952 | 9130 ft | 241 kts | 95° |
| 2026-05-05 21:33 | 45.55935 | 8.91314 | 9012 ft | 246 kts | 71° |
| 2026-05-05 21:33 | 45.56612 | 8.93534 | 8971 ft | 248 kts | 60° |
| 2026-05-05 21:34 | 45.57860 | 8.95231 | 8966 ft | 251 kts | 27° |
| 2026-05-05 21:34 | 45.59460 | 8.96214 | 8975 ft | 253 kts | 22° |
| 2026-05-05 21:34 | 45.61097 | 8.97156 | 8969 ft | 253 kts | 22° |
| 2026-05-05 21:34 | 45.62728 | 8.98122 | 8886 ft | 253 kts | 23° |
| 2026-05-05 21:35 | 45.64340 | 8.99104 | 8642 ft | 252 kts | 24° |
| 2026-05-05 21:35 | 45.65935 | 9.00077 | 8399 ft | 249 kts | 20° |
| 2026-05-05 21:35 | 45.67620 | 9.00357 | 8121 ft | 245 kts | 344° |
| 2026-05-05 21:35 | 45.69071 | 8.99179 | 7982 ft | 240 kts | 310° |
| 2026-05-05 21:36 | 45.69896 | 8.97147 | 7975 ft | 237 kts | 282° |
| 2026-05-05 21:36 | 45.69960 | 8.94865 | 7962 ft | 233 kts | 254° |
| 2026-05-05 21:36 | 45.69271 | 8.92814 | 7968 ft | 229 kts | 226° |
| 2026-05-05 21:36 | 45.68003 | 8.91475 | 7981 ft | 227 kts | 203° |
| 2026-05-05 21:37 | 45.66547 | 8.90601 | 7999 ft | 226 kts | 202° |
| 2026-05-05 21:37 | 45.65105 | 8.89743 | 7985 ft | 226 kts | 202° |
| 2026-05-05 21:37 | 45.63653 | 8.88860 | 7979 ft | 225 kts | 202° |
| 2026-05-05 21:37 | 45.62225 | 8.87981 | 7881 ft | 225 kts | 203° |
| 2026-05-05 21:38 | 45.60750 | 8.87213 | 7745 ft | 224 kts | 187° |
| 2026-05-05 21:38 | 45.59232 | 8.87530 | 7617 ft | 225 kts | 155° |
| 2026-05-05 21:38 | 45.58001 | 8.88908 | 7493 ft | 229 kts | 128° |
| 2026-05-05 21:38 | 45.57351 | 8.90971 | 7369 ft | 233 kts | 101° |
| 2026-05-05 21:39 | 45.57463 | 8.93253 | 7240 ft | 237 kts | 72° |
| 2026-05-05 21:39 | 45.58358 | 8.95227 | 7112 ft | 240 kts | 41° |
| 2026-05-05 21:39 | 45.59792 | 8.96408 | 6997 ft | 241 kts | 24° |
| 2026-05-05 21:39 | 45.61337 | 8.97322 | 6971 ft | 241 kts | 22° |
| 2026-05-05 21:40 | 45.62911 | 8.98251 | 6970 ft | 241 kts | 23° |
| 2026-05-05 21:40 | 45.64434 | 8.99171 | 6969 ft | 240 kts | 24° |
| 2026-05-05 21:40 | 45.65984 | 9.00083 | 6966 ft | 241 kts | 16° |
| 2026-05-05 21:40 | 45.67644 | 9.00155 | 6963 ft | 241 kts | 342° |
| 2026-05-05 21:41 | 45.69064 | 8.98977 | 6969 ft | 239 kts | 311° |
| 2026-05-05 21:41 | 45.69886 | 8.96947 | 6941 ft | 236 kts | 281° |
| 2026-05-05 21:41 | 45.69911 | 8.94656 | 6804 ft | 231 kts | 252° |
| 2026-05-05 21:41 | 45.69176 | 8.92663 | 6674 ft | 227 kts | 224° |
| 2026-05-05 21:42 | 45.67892 | 8.91400 | 6556 ft | 224 kts | 202° |
| 2026-05-05 21:42 | 45.66465 | 8.90547 | 6454 ft | 223 kts | 201° |
| 2026-05-05 21:42 | 45.65035 | 8.89696 | 6330 ft | 223 kts | 202° |
| 2026-05-05 21:42 | 45.63609 | 8.88829 | 6207 ft | 223 kts | 202° |
| 2026-05-05 21:43 | 45.62191 | 8.87957 | 6084 ft | 222 kts | 202° |
| 2026-05-05 21:43 | 45.60729 | 8.87209 | 5980 ft | 229 kts | 186° |
| 2026-05-05 21:43 | 45.59130 | 8.87478 | 5988 ft | 232 kts | 164° |
| 2026-05-05 21:43 | 45.57583 | 8.88093 | 5984 ft | 231 kts | 165° |
| 2026-05-05 21:44 | 45.56034 | 8.88674 | 5976 ft | 229 kts | 166° |
| 2026-05-05 21:44 | 45.54533 | 8.89224 | 5966 ft | 214 kts | 166° |
| 2026-05-05 21:44 | 45.53114 | 8.89743 | 5973 ft | 210 kts | 166° |
| 2026-05-05 21:44 | 45.51694 | 8.90259 | 5976 ft | 209 kts | 166° |
| 2026-05-05 21:45 | 45.50279 | 8.90761 | 5978 ft | 210 kts | 167° |
| 2026-05-05 21:45 | 45.48860 | 8.91173 | 5977 ft | 209 kts | 169° |
| 2026-05-05 21:45 | 45.47449 | 8.91567 | 5978 ft | 209 kts | 169° |
| 2026-05-05 21:45 | 45.46015 | 8.91965 | 5977 ft | 209 kts | 169° |
| 2026-05-05 21:46 | 45.44579 | 8.92360 | 5974 ft | 209 kts | 169° |
| 2026-05-05 21:46 | 45.43160 | 8.92747 | 5977 ft | 209 kts | 170° |
| 2026-05-05 21:46 | 45.41730 | 8.93137 | 5976 ft | 208 kts | 170° |
| 2026-05-05 21:46 | 45.40314 | 8.93521 | 5978 ft | 208 kts | 170° |
| 2026-05-05 21:47 | 45.38879 | 8.93909 | 5976 ft | 209 kts | 170° |
| 2026-05-05 21:47 | 45.37448 | 8.94295 | 5976 ft | 209 kts | 170° |
| 2026-05-05 21:47 | 45.36029 | 8.94679 | 5971 ft | 208 kts | 170° |
| 2026-05-05 21:47 | 45.34618 | 8.95062 | 5765 ft | 205 kts | 170° |
| 2026-05-05 21:48 | 45.33223 | 8.95439 | 5445 ft | 206 kts | 170° |
| 2026-05-05 21:48 | 45.31801 | 8.95823 | 5145 ft | 206 kts | 170° |
| 2026-05-05 21:48 | 45.30403 | 8.96201 | 4859 ft | 205 kts | 170° |
| 2026-05-05 21:48 | 45.29005 | 8.96580 | 4571 ft | 205 kts | 169° |
| 2026-05-05 21:49 | 45.27599 | 8.96961 | 4299 ft | 204 kts | 169° |
| 2026-05-05 21:49 | 45.26204 | 8.97340 | 4059 ft | 204 kts | 169° |
| 2026-05-05 21:49 | 45.24818 | 8.97716 | 3981 ft | 204 kts | 169° |
| 2026-05-05 21:49 | 45.23421 | 8.98096 | 3978 ft | 204 kts | 169° |
| 2026-05-05 21:50 | 45.22023 | 8.98475 | 3976 ft | 204 kts | 169° |
| 2026-05-05 21:50 | 45.20643 | 8.98846 | 3974 ft | 204 kts | 169° |
| 2026-05-05 21:50 | 45.19231 | 8.99224 | 3971 ft | 204 kts | 169° |
| 2026-05-05 21:50 | 45.17843 | 8.99594 | 3969 ft | 204 kts | 169° |
| 2026-05-05 21:51 | 45.16452 | 8.99966 | 3965 ft | 205 kts | 169° |
| 2026-05-05 21:51 | 45.15049 | 9.00341 | 3969 ft | 205 kts | 169° |
| 2026-05-05 21:51 | 45.13629 | 9.00722 | 3975 ft | 205 kts | 169° |
| 2026-05-05 21:51 | 45.12223 | 9.00978 | 3967 ft | 204 kts | 186° |
| 2026-05-05 21:52 | 45.10399 | 8.98278 | 3975 ft | 210 kts | 262° |
| 2026-05-05 21:52 | 45.10564 | 8.96235 | 3981 ft | 213 kts | 285° |
| 2026-05-05 21:52 | 45.11237 | 8.94378 | 3956 ft | 216 kts | 314° |
| 2026-05-05 21:53 | 45.12427 | 8.93024 | 3983 ft | 218 kts | 325° |
| 2026-05-05 21:53 | 45.13686 | 8.91824 | 3979 ft | 218 kts | 324° |
| 2026-05-05 21:53 | 45.14923 | 8.90595 | 3971 ft | 218 kts | 323° |
| 2026-05-05 21:53 | 45.16142 | 8.89321 | 3974 ft | 217 kts | 322° |
| 2026-05-05 21:54 | 45.17338 | 8.88026 | 3970 ft | 218 kts | 321° |
| 2026-05-05 21:54 | 45.18536 | 8.86706 | 3966 ft | 218 kts | 321° |
| 2026-05-05 21:54 | 45.19730 | 8.85382 | 3964 ft | 217 kts | 322° |
| 2026-05-05 21:54 | 45.21040 | 8.84344 | 3958 ft | 217 kts | 341° |
| 2026-05-05 21:55 | 45.22507 | 8.83827 | 3976 ft | 218 kts | 349° |
| 2026-05-05 21:55 | 45.23998 | 8.83451 | 3964 ft | 217 kts | 350° |
| 2026-05-05 21:55 | 45.25479 | 8.83086 | 3961 ft | 217 kts | 350° |
| 2026-05-05 21:55 | 45.26967 | 8.82704 | 3962 ft | 217 kts | 350° |
| 2026-05-05 21:56 | 45.28468 | 8.82307 | 3959 ft | 217 kts | 349° |
| 2026-05-05 21:56 | 45.29932 | 8.81912 | 3958 ft | 217 kts | 350° |
| 2026-05-05 21:56 | 45.31427 | 8.81507 | 3962 ft | 216 kts | 350° |
| 2026-05-05 21:56 | 45.32912 | 8.81104 | 3966 ft | 217 kts | 350° |
| 2026-05-05 21:57 | 45.34389 | 8.80703 | 3970 ft | 217 kts | 349° |
| 2026-05-05 21:57 | 45.35860 | 8.80302 | 3973 ft | 216 kts | 350° |
| 2026-05-05 21:57 | 45.37348 | 8.79921 | 3973 ft | 216 kts | 352° |
| 2026-05-05 21:57 | 45.38849 | 8.79617 | 3974 ft | 216 kts | 353° |
| 2026-05-05 21:58 | 45.40281 | 8.79339 | 3958 ft | 203 kts | 353° |
| 2026-05-05 21:58 | 45.41622 | 8.79079 | 4027 ft | 186 kts | 353° |
| 2026-05-05 21:58 | 45.42893 | 8.78832 | 3991 ft | 183 kts | 353° |
| 2026-05-05 21:58 | 45.44146 | 8.78544 | 3979 ft | 183 kts | 351° |
| 2026-05-05 21:59 | 45.45414 | 8.78215 | 3894 ft | 183 kts | 351° |
| 2026-05-05 21:59 | 45.46654 | 8.77881 | 3669 ft | 182 kts | 351° |
| 2026-05-05 21:59 | 45.47889 | 8.77542 | 3424 ft | 180 kts | 350° |
| 2026-05-05 21:59 | 45.49115 | 8.77202 | 3182 ft | 179 kts | 350° |
| 2026-05-05 22:00 | 45.50331 | 8.76863 | 2941 ft | 178 kts | 350° |
| 2026-05-05 22:00 | 45.51527 | 8.76531 | 2707 ft | 176 kts | 350° |
| 2026-05-05 22:00 | 45.52725 | 8.76198 | 2472 ft | 174 kts | 350° |
| 2026-05-05 22:00 | 45.53903 | 8.75871 | 2243 ft | 172 kts | 350° |
| 2026-05-05 22:01 | 45.55039 | 8.75557 | 2027 ft | 159 kts | 349° |
| 2026-05-05 22:01 | 45.56084 | 8.75268 | 1803 ft | 148 kts | 349° |
| 2026-05-05 22:01 | 45.57068 | 8.74996 | 1600 ft | 140 kts | 349° |
| 2026-05-05 22:01 | 45.58022 | 8.74733 | 1422 ft | 140 kts | 349° |
| 2026-05-05 22:02 | 45.58972 | 8.74462 | 1248 ft | 139 kts | 348° |
| 2026-05-05 22:02 | 45.59923 | 8.74198 | 1068 ft | 139 kts | 350° |
| 2026-05-05 22:02 | 45.60880 | 8.73945 | 875 ft | 138 kts | 349° |
| 2026-05-05 22:02 | 45.61815 | 8.73682 | 722 ft | 137 kts | 348° |
| 2026-05-05 22:03 | 45.62668 | 8.73448 | 723 ft | 106 kts | 350° |
| 2026-05-05 22:03 | 45.63074 | 8.73318 | 732 ft | 30 kts | 330° |
| 2026-05-05 22:03 | 45.63224 | 8.73140 | 736 ft | 26 kts | 310° |
| 2026-05-05 22:03 | 45.63321 | 8.72943 | 739 ft | 19 kts | 303° |
| 2026-05-05 22:04 | 45.63381 | 8.72818 | 741 ft | 14 kts | 306° |
| 2026-05-05 22:04 | 45.63412 | 8.72687 | 743 ft | 13 kts | 272° |
| 2026-05-05 22:04 | 45.63399 | 8.72546 | 743 ft | 15 kts | 261° |
| 2026-05-05 22:04 | 45.63376 | 8.72386 | 744 ft | 17 kts | 259° |
| 2026-05-05 22:05 | 45.63355 | 8.72220 | 744 ft | 17 kts | 260° |
| 2026-05-05 22:05 | 45.63331 | 8.72051 | 744 ft | 17 kts | 259° |
| 2026-05-05 22:05 | 45.63308 | 8.71875 | 744 ft | 18 kts | 259° |
| 2026-05-05 22:05 | 45.63286 | 8.71713 | 744 ft | 10 kts | 260° |
| 2026-05-05 22:06 | 45.63227 | 8.71673 | 743 ft | 11 kts | 172° |
| 2026-05-05 22:06 | 45.63141 | 8.71697 | 741 ft | 11 kts | 169° |
| 2026-05-05 22:06 | 45.63104 | 8.71700 | 740 ft | 4 kts | 218° |
| 2026-05-05 22:06 | 45.63089 | 8.71640 | 740 ft | 6 kts | 261° |
| 2026-05-05 22:07 | 45.63083 | 8.71596 | 740 ft | 1 kts | 259° |
| 2026-05-05 22:07 | 45.63083 | 8.71591 | 740 ft | 0 kts | 259° |